createdAt,value
2018-12-11T00:00:10.860Z,0
2018-12-11T00:01:20.796Z,0
2018-12-11T00:02:30.534Z,0
2018-12-11T00:03:40.472Z,0
2018-12-11T00:04:50.416Z,0
2018-12-11T00:06:00.361Z,0
2018-12-11T00:07:10.300Z,0
2018-12-11T00:08:19.749Z,0
2018-12-11T00:09:29.435Z,0
2018-12-11T00:10:39.379Z,0
2018-12-11T00:11:49.320Z,0
2018-12-11T00:12:59.013Z,0
2018-12-11T00:14:08.957Z,0
2018-12-11T00:15:18.399Z,0
2018-12-11T00:16:28.098Z,0
2018-12-11T00:17:38.036Z,0
2018-12-11T00:18:47.969Z,0
2018-12-11T00:19:57.919Z,0
2018-12-11T00:21:07.351Z,0
2018-12-11T00:22:17.032Z,0
2018-12-11T00:23:26.975Z,0
2018-12-11T00:24:36.420Z,0
2018-12-11T00:25:45.855Z,0
2018-12-11T00:26:55.539Z,0
2018-12-11T00:28:05.479Z,0
2018-12-11T00:29:15.411Z,0
2018-12-11T00:30:25.339Z,0
2018-12-11T00:31:35.014Z,0
2018-12-11T00:32:44.701Z,0
2018-12-11T00:33:54.622Z,0
2018-12-11T00:35:04.309Z,0
2018-12-11T00:36:14.238Z,0
2018-12-11T00:37:23.920Z,0
2018-12-11T00:38:33.877Z,0
2018-12-11T00:39:43.562Z,0
2018-12-11T00:40:53.504Z,0
2018-12-11T00:42:03.181Z,0
2018-12-11T00:43:12.854Z,0
2018-12-11T00:44:22.290Z,0
2018-12-11T00:45:32.239Z,0
2018-12-11T00:46:42.166Z,0
2018-12-11T00:47:52.101Z,0
2018-12-11T00:49:02.053Z,0
2018-12-11T00:50:12.001Z,0
2018-12-11T00:51:21.194Z,0
2018-12-11T00:52:30.888Z,0
2018-12-11T00:53:40.815Z,0
2018-12-11T00:54:50.507Z,0
2018-12-11T00:56:00.191Z,0
2018-12-11T00:57:09.630Z,0
2018-12-11T00:58:19.045Z,0
2018-12-11T00:59:28.736Z,0
2018-12-11T01:00:38.423Z,0
2018-12-11T01:01:48.357Z,0
2018-12-11T01:02:58.041Z,0
2018-12-11T01:04:07.975Z,0
2018-12-11T01:05:17.907Z,0
2018-12-11T01:06:27.871Z,0
2018-12-11T01:07:37.557Z,0
2018-12-11T01:08:47.243Z,0
2018-12-11T01:09:57.182Z,0
2018-12-11T01:11:06.631Z,0
2018-12-11T01:12:16.336Z,0
2018-12-11T01:13:26.032Z,0
2018-12-11T01:14:35.456Z,0
2018-12-11T01:15:45.147Z,0
2018-12-11T01:16:55.076Z,0
2018-12-11T01:18:04.775Z,0
2018-12-11T01:19:14.703Z,0
2018-12-11T01:20:24.689Z,0
2018-12-11T01:21:34.381Z,0
2018-12-11T01:22:44.319Z,0
2018-12-11T01:23:54.015Z,0
2018-12-11T01:25:03.942Z,0
2018-12-11T01:26:13.639Z,0
2018-12-11T01:27:23.576Z,0
2018-12-11T01:28:33.521Z,0
2018-12-11T01:29:42.956Z,0
2018-12-11T01:30:52.637Z,0
2018-12-11T01:32:02.577Z,0
2018-12-11T01:33:12.512Z,0
2018-12-11T01:34:22.458Z,0
2018-12-11T01:35:32.385Z,0
2018-12-11T01:36:42.321Z,0
2018-12-11T01:37:52.001Z,0
2018-12-11T01:39:01.681Z,0
2018-12-11T01:40:11.364Z,0
2018-12-11T01:41:21.294Z,0
2018-12-11T01:42:31.221Z,0
2018-12-11T01:43:41.153Z,0
2018-12-11T01:44:51.089Z,0
2018-12-11T01:46:01.029Z,0
2018-12-11T01:47:10.961Z,0
2018-12-11T01:48:20.899Z,0
2018-12-11T01:49:30.827Z,0
2018-12-11T01:50:40.508Z,0
2018-12-11T01:51:50.442Z,0
2018-12-11T01:53:00.137Z,0
2018-12-11T01:54:09.828Z,0
2018-12-11T01:55:19.762Z,0
2018-12-11T01:56:29.436Z,0
2018-12-11T01:57:39.375Z,0
2018-12-11T01:58:49.303Z,0
2018-12-11T01:59:59.236Z,0
2018-12-11T02:01:09.183Z,0
2018-12-11T02:02:19.126Z,0
2018-12-11T02:03:28.819Z,0
2018-12-11T02:04:38.508Z,0
2018-12-11T02:05:47.964Z,0
2018-12-11T02:06:57.168Z,0
2018-12-11T02:08:07.169Z,0
2018-12-11T02:09:16.924Z,0
2018-12-11T02:10:26.943Z,0
2018-12-11T02:11:36.670Z,0
2018-12-11T02:12:46.606Z,0
2018-12-11T02:13:56.434Z,0
2018-12-11T02:15:06.125Z,0
2018-12-11T02:16:16.076Z,0
2018-12-11T02:17:25.766Z,0
2018-12-11T02:18:35.453Z,0
2018-12-11T02:19:45.149Z,0
2018-12-11T02:20:54.850Z,0
2018-12-11T02:22:04.801Z,0
2018-12-11T02:23:14.839Z,0
2018-12-11T02:24:24.268Z,0
2018-12-11T02:25:34.198Z,0
2018-12-11T02:26:43.894Z,0
2018-12-11T02:27:53.581Z,0
2018-12-11T02:29:03.530Z,0
2018-12-11T02:30:13.489Z,0
2018-12-11T02:31:23.435Z,0
2018-12-11T02:32:33.368Z,0
2018-12-11T02:33:43.376Z,0
2018-12-11T02:34:53.083Z,0
2018-12-11T02:36:03.013Z,0
2018-12-11T02:37:12.945Z,0
2018-12-11T02:38:22.908Z,0
2018-12-11T02:39:32.879Z,0
2018-12-11T02:40:42.581Z,0
2018-12-11T02:41:52.300Z,0
2018-12-11T02:43:02.261Z,0
2018-12-11T02:44:11.982Z,0
2018-12-11T02:45:21.671Z,0
2018-12-11T02:46:31.624Z,0
2018-12-11T02:47:41.616Z,0
2018-12-11T02:48:51.572Z,0
2018-12-11T02:50:01.268Z,0
2018-12-11T02:51:11.224Z,0
2018-12-11T02:52:20.924Z,0
2018-12-11T02:53:30.624Z,0
2018-12-11T02:54:40.576Z,0
2018-12-11T02:55:50.530Z,0
2018-12-11T02:57:00.228Z,0
2018-12-11T02:58:10.176Z,0
2018-12-11T02:59:19.865Z,0
2018-12-11T03:00:29.879Z,0
2018-12-11T03:01:39.582Z,0
2018-12-11T03:02:49.557Z,0
2018-12-11T03:03:59.510Z,0
2018-12-11T03:05:09.215Z,0
2018-12-11T03:06:18.653Z,0
2018-12-11T03:07:28.338Z,0
2018-12-11T03:08:38.040Z,0
2018-12-11T03:09:47.979Z,0
2018-12-11T03:10:57.680Z,0
2018-12-11T03:12:07.384Z,0
2018-12-11T03:13:17.336Z,0
2018-12-11T03:14:27.342Z,0
2018-12-11T03:15:37.028Z,0
2018-12-11T03:16:46.458Z,0
2018-12-11T03:17:56.409Z,0
2018-12-11T03:19:06.097Z,0
2018-12-11T03:20:16.032Z,0
2018-12-11T03:21:25.972Z,0
2018-12-11T03:22:35.920Z,0
2018-12-11T03:23:45.848Z,0
2018-12-11T03:24:55.792Z,0
2018-12-11T03:26:05.748Z,0
2018-12-11T03:27:15.684Z,0
2018-12-11T03:28:25.122Z,0
2018-12-11T03:29:35.090Z,0
2018-12-11T03:30:45.083Z,0
2018-12-11T03:31:55.046Z,0
2018-12-11T03:33:04.781Z,0
2018-12-11T03:34:14.750Z,0
2018-12-11T03:35:24.438Z,0
2018-12-11T03:36:34.374Z,0
2018-12-11T03:37:43.819Z,0
2018-12-11T03:38:53.494Z,0
2018-12-11T03:40:02.952Z,0
2018-12-11T03:41:12.381Z,0
2018-12-11T03:42:22.338Z,0
2018-12-11T03:43:32.262Z,0
2018-12-11T03:44:41.694Z,0
2018-12-11T03:45:51.615Z,0
2018-12-11T03:47:01.308Z,0
2018-12-11T03:48:11.258Z,0
2018-12-11T03:49:21.183Z,0
2018-12-11T03:50:31.123Z,0
2018-12-11T03:52:00.273Z,0
2018-12-11T03:53:10.230Z,0
2018-12-11T03:54:19.919Z,0
2018-12-11T03:55:29.858Z,0
2018-12-11T03:56:39.804Z,0
2018-12-11T03:57:49.513Z,0
2018-12-11T03:58:59.451Z,0
2018-12-11T04:00:09.232Z,0
2018-12-11T04:01:18.930Z,0
2018-12-11T04:02:28.610Z,0
2018-12-11T04:03:38.321Z,0
2018-12-11T04:04:48.265Z,0
2018-12-11T04:05:57.960Z,0
2018-12-11T04:07:07.652Z,0
2018-12-11T04:08:17.334Z,0
2018-12-11T04:09:27.296Z,0
2018-12-11T04:10:37.002Z,0
2018-12-11T04:11:46.916Z,0
2018-12-11T04:12:56.590Z,0
2018-12-11T04:14:06.534Z,0
2018-12-11T04:15:16.490Z,0
2018-12-11T04:16:26.440Z,0
2018-12-11T04:17:36.398Z,0
2018-12-11T04:18:46.108Z,0
2018-12-11T04:19:56.054Z,0
2018-12-11T04:21:06.000Z,0
2018-12-11T04:22:15.943Z,0
2018-12-11T04:23:25.902Z,0
2018-12-11T04:24:35.896Z,0
2018-12-11T04:25:45.846Z,0
2018-12-11T04:26:55.794Z,0
2018-12-11T04:28:05.742Z,0
2018-12-11T04:29:15.674Z,0
2018-12-11T04:30:25.627Z,0
2018-12-11T04:31:35.609Z,0
2018-12-11T04:32:45.559Z,0
2018-12-11T04:33:55.233Z,0
2018-12-11T04:35:04.939Z,0
2018-12-11T04:36:14.963Z,0
2018-12-11T04:37:24.914Z,0
2018-12-11T04:38:34.851Z,0
2018-12-11T04:39:44.786Z,0
2018-12-11T04:40:54.749Z,0
2018-12-11T04:42:04.693Z,0
2018-12-11T04:43:14.387Z,0
2018-12-11T04:44:24.338Z,0
2018-12-11T04:45:34.271Z,0
2018-12-11T04:46:44.214Z,0
2018-12-11T04:47:54.135Z,0
2018-12-11T04:49:03.822Z,0
2018-12-11T04:50:13.762Z,0
2018-12-11T04:51:23.453Z,0
2018-12-11T04:52:33.381Z,0
2018-12-11T04:53:43.071Z,0
2018-12-11T04:54:52.760Z,0
2018-12-11T04:56:02.449Z,0
2018-12-11T04:57:12.138Z,0
2018-12-11T04:58:22.094Z,0
2018-12-11T04:59:31.790Z,0
2018-12-11T05:00:41.724Z,0
2018-12-11T05:01:51.655Z,0
2018-12-11T05:03:01.606Z,0
2018-12-11T05:04:11.556Z,0
2018-12-11T05:05:21.256Z,0
2018-12-11T05:06:31.190Z,0
2018-12-11T05:07:41.136Z,0
2018-12-11T05:08:51.064Z,0
2018-12-11T05:10:00.825Z,0
2018-12-11T05:11:10.505Z,0
2018-12-11T05:12:20.196Z,0
2018-12-11T05:13:30.126Z,0
2018-12-11T05:14:40.052Z,0
2018-12-11T05:15:50.050Z,0
2018-12-11T05:16:59.982Z,0
2018-12-11T05:18:09.938Z,0
2018-12-11T05:19:19.890Z,0
2018-12-11T05:20:29.594Z,0
2018-12-11T05:21:39.607Z,0
2018-12-11T05:22:49.544Z,0
2018-12-11T05:23:59.484Z,0
2018-12-11T05:25:09.430Z,0
2018-12-11T05:26:19.114Z,0
2018-12-11T05:27:28.809Z,0
2018-12-11T05:28:38.739Z,0
2018-12-11T05:29:48.432Z,0
2018-12-11T05:30:58.369Z,0
2018-12-11T05:32:08.061Z,0
2018-12-11T05:33:18.009Z,0
2018-12-11T05:34:27.698Z,0
2018-12-11T05:35:37.390Z,0
2018-12-11T05:36:47.352Z,0
2018-12-11T05:37:56.798Z,0
2018-12-11T05:39:06.493Z,0
2018-12-11T05:40:16.425Z,0
2018-12-11T05:41:26.362Z,0
2018-12-11T05:42:35.540Z,0
2018-12-11T05:43:45.238Z,0
2018-12-11T05:44:55.173Z,0
2018-12-11T05:46:05.456Z,0
2018-12-11T05:47:14.964Z,0
2018-12-11T05:48:24.650Z,0
2018-12-11T05:49:34.345Z,0
2018-12-11T05:50:44.286Z,0
2018-12-11T05:51:53.975Z,0
2018-12-11T05:53:03.407Z,0
2018-12-11T05:54:13.342Z,0
2018-12-11T05:55:23.027Z,0
2018-12-11T05:56:32.739Z,0
2018-12-11T05:57:42.433Z,0
2018-12-11T05:58:52.362Z,0
2018-12-11T06:00:02.290Z,0
2018-12-11T06:01:12.241Z,0
2018-12-11T06:02:22.190Z,0
2018-12-11T06:03:31.885Z,0
2018-12-11T06:04:41.325Z,0
2018-12-11T06:05:51.290Z,0
2018-12-11T06:07:00.743Z,0
2018-12-11T06:08:09.960Z,0
2018-12-11T06:09:19.403Z,0
2018-12-11T06:10:29.345Z,0
2018-12-11T06:11:39.056Z,0
2018-12-11T06:12:48.751Z,0
2018-12-11T06:13:58.443Z,0
2018-12-11T06:15:08.139Z,0
2018-12-11T06:16:17.847Z,0
2018-12-11T06:17:27.547Z,0
2018-12-11T06:18:37.505Z,0
2018-12-11T06:19:47.218Z,0
2018-12-11T06:20:57.165Z,0
2018-12-11T06:22:07.120Z,0
2018-12-11T06:23:16.554Z,0
2018-12-11T06:24:26.507Z,0
2018-12-11T06:25:36.457Z,0
2018-12-11T06:26:46.400Z,0
2018-12-11T06:27:56.357Z,0
2018-12-11T06:29:06.296Z,0
2018-12-11T06:30:15.746Z,0
2018-12-11T06:31:25.685Z,0
2018-12-11T06:32:35.632Z,0
2018-12-11T06:33:45.322Z,0
2018-12-11T06:34:55.258Z,0
2018-12-11T06:36:05.222Z,0
2018-12-11T06:37:15.228Z,0
2018-12-11T06:38:25.191Z,0
2018-12-11T06:39:34.658Z,0
2018-12-11T06:40:44.604Z,0
2018-12-11T06:41:54.550Z,0
2018-12-11T06:43:04.606Z,0
2018-12-11T06:44:14.290Z,0
2018-12-11T06:45:24.225Z,0
2018-12-11T06:46:34.158Z,0
2018-12-11T06:47:44.103Z,0
2018-12-11T06:48:54.053Z,0
2018-12-11T06:50:03.753Z,0
2018-12-11T06:51:13.707Z,0
2018-12-11T06:52:23.460Z,0
2018-12-11T06:53:33.157Z,0
2018-12-11T06:54:43.094Z,0
2018-12-11T06:55:53.033Z,0
2018-12-11T06:57:02.742Z,0
2018-12-11T06:58:12.686Z,0
2018-12-11T06:59:22.116Z,0
2018-12-11T07:00:32.086Z,0
2018-12-11T07:01:42.055Z,0
2018-12-11T07:02:52.015Z,0
2018-12-11T07:04:01.450Z,0
2018-12-11T07:05:11.168Z,0
2018-12-11T07:06:21.098Z,0
2018-12-11T07:07:31.074Z,0
2018-12-11T07:08:40.774Z,0
2018-12-11T07:09:50.720Z,5
2018-12-11T07:11:00.698Z,5
2018-12-11T07:12:10.642Z,5
2018-12-11T07:13:20.334Z,5
2018-12-11T07:14:30.336Z,5
2018-12-11T07:15:40.280Z,5
2018-12-11T07:16:50.254Z,5
2018-12-11T07:18:00.209Z,5
2018-12-11T07:19:09.909Z,5
2018-12-11T07:20:19.865Z,10
2018-12-11T07:21:29.552Z,5
2018-12-11T07:22:38.987Z,5
2018-12-11T07:23:48.977Z,5
2018-12-11T07:24:58.937Z,10
2018-12-11T07:26:08.911Z,10
2018-12-11T07:27:18.374Z,10
2018-12-11T07:28:28.063Z,15
2018-12-11T07:29:38.009Z,15
2018-12-11T07:30:47.733Z,20
2018-12-11T07:31:57.691Z,20
2018-12-11T07:33:07.664Z,20
2018-12-11T07:34:17.396Z,20
2018-12-11T07:35:27.329Z,20
2018-12-11T07:36:37.285Z,25
2018-12-11T07:37:47.231Z,30
2018-12-11T07:38:57.405Z,35
2018-12-11T07:40:07.382Z,35
2018-12-11T07:41:17.089Z,30
2018-12-11T07:42:26.778Z,35
2018-12-11T07:43:36.777Z,30
2018-12-11T07:44:46.747Z,30
2018-12-11T07:45:56.545Z,35
2018-12-11T07:47:06.245Z,35
2018-12-11T07:48:16.269Z,25
2018-12-11T07:49:25.989Z,25
2018-12-11T07:50:35.930Z,25
2018-12-11T07:51:45.638Z,30
2018-12-11T07:52:55.594Z,30
2018-12-11T07:54:05.574Z,35
2018-12-11T07:55:15.513Z,40
2018-12-11T07:56:25.656Z,40
2018-12-11T07:57:35.358Z,35
2018-12-11T07:58:45.321Z,30
2018-12-11T07:59:55.056Z,30
2018-12-11T08:01:05.014Z,25
2018-12-11T08:02:15.214Z,25
2018-12-11T08:03:25.199Z,25
2018-12-11T08:04:35.173Z,25
2018-12-11T08:05:45.125Z,20
2018-12-11T08:06:54.663Z,20
2018-12-11T08:08:04.394Z,20
2018-12-11T08:09:14.339Z,15
2018-12-11T08:10:24.044Z,25
2018-12-11T08:11:33.741Z,20
2018-12-11T08:12:43.462Z,15
2018-12-11T08:13:53.222Z,20
2018-12-11T08:15:03.165Z,20
2018-12-11T08:16:12.610Z,25
2018-12-11T08:17:22.551Z,30
2018-12-11T08:18:32.246Z,35
2018-12-11T08:19:42.187Z,35
2018-12-11T08:20:52.191Z,35
2018-12-11T08:22:02.137Z,40
2018-12-11T08:23:11.877Z,40
2018-12-11T08:24:22.072Z,35
2018-12-11T08:25:31.766Z,35
2018-12-11T08:26:41.730Z,35
2018-12-11T08:27:51.690Z,35
2018-12-11T08:29:01.450Z,30
2018-12-11T08:30:10.907Z,25
2018-12-11T08:31:20.587Z,30
2018-12-11T08:32:30.544Z,30
2018-12-11T08:33:40.233Z,35
2018-12-11T08:34:50.167Z,35
2018-12-11T08:36:00.113Z,40
2018-12-11T08:37:10.330Z,65
2018-12-11T08:38:20.286Z,100
2018-12-11T08:39:29.998Z,115
2018-12-11T08:40:39.945Z,115
2018-12-11T08:41:49.921Z,95
2018-12-11T08:42:59.853Z,80
2018-12-11T08:44:09.547Z,75
2018-12-11T08:45:18.981Z,70
2018-12-11T08:46:29.162Z,55
2018-12-11T08:47:38.636Z,70
2018-12-11T08:48:48.327Z,75
2018-12-11T08:49:58.018Z,70
2018-12-11T08:51:07.978Z,70
2018-12-11T08:52:17.955Z,60
2018-12-11T08:53:27.652Z,70
2018-12-11T08:54:37.673Z,70
2018-12-11T08:55:47.381Z,70
2018-12-11T08:56:57.076Z,75
2018-12-11T08:58:06.780Z,85
2018-12-11T08:59:16.742Z,95
2018-12-11T09:00:26.702Z,105
2018-12-11T09:01:36.404Z,90
2018-12-11T09:02:46.362Z,70
2018-12-11T09:03:56.056Z,65
2018-12-11T09:05:06.043Z,65
2018-12-11T09:06:15.495Z,65
2018-12-11T09:07:25.225Z,65
2018-12-11T09:08:34.677Z,60
2018-12-11T09:09:44.419Z,50
2018-12-11T09:10:54.117Z,40
2018-12-11T09:12:03.820Z,45
2018-12-11T09:13:13.512Z,45
2018-12-11T09:14:23.473Z,50
2018-12-11T09:15:33.419Z,45
2018-12-11T09:16:43.373Z,45
2018-12-11T09:17:53.305Z,55
2018-12-11T09:19:03.581Z,65
2018-12-11T09:20:13.545Z,85
2018-12-11T09:21:23.488Z,105
2018-12-11T09:22:32.935Z,85
2018-12-11T09:23:42.661Z,75
2018-12-11T09:24:52.605Z,80
2018-12-11T09:26:02.325Z,90
2018-12-11T09:27:12.308Z,90
2018-12-11T09:28:22.027Z,105
2018-12-11T09:29:31.770Z,110
2018-12-11T09:30:41.503Z,105
2018-12-11T09:31:51.476Z,95
2018-12-11T09:33:01.174Z,105
2018-12-11T09:34:11.120Z,100
2018-12-11T09:35:21.067Z,105
2018-12-11T09:36:30.802Z,110
2018-12-11T09:37:40.745Z,115
2018-12-11T09:38:50.444Z,115
2018-12-11T09:40:00.122Z,105
2018-12-11T09:41:10.129Z,115
2018-12-11T09:42:19.857Z,115
2018-12-11T09:43:29.801Z,120
2018-12-11T09:44:39.494Z,120
2018-12-11T09:45:49.186Z,115
2018-12-11T09:46:58.887Z,115
2018-12-11T09:48:08.835Z,110
2018-12-11T09:49:18.527Z,105
2018-12-11T09:50:27.976Z,105
2018-12-11T09:51:37.917Z,105
2018-12-11T09:52:47.873Z,105
2018-12-11T09:53:57.908Z,115
2018-12-11T09:55:07.864Z,125
2018-12-11T09:56:17.674Z,110
2018-12-11T09:57:27.636Z,115
2018-12-11T09:58:37.584Z,120
2018-12-11T09:59:47.553Z,110
2018-12-11T10:00:57.249Z,115
2018-12-11T10:02:07.200Z,120
2018-12-11T10:03:16.910Z,120
2018-12-11T10:04:26.852Z,125
2018-12-11T10:05:36.845Z,135
2018-12-11T10:06:46.525Z,125
2018-12-11T10:07:56.462Z,115
2018-12-11T10:09:06.394Z,105
2018-12-11T10:10:16.107Z,115
2018-12-11T10:11:26.059Z,115
2018-12-11T10:12:35.494Z,105
2018-12-11T10:13:45.206Z,80
2018-12-11T10:14:55.150Z,95
2018-12-11T10:16:04.859Z,85
2018-12-11T10:17:14.578Z,95
2018-12-11T10:18:24.520Z,90
2018-12-11T10:19:34.207Z,85
2018-12-11T10:20:44.261Z,85
2018-12-11T10:21:54.241Z,95
2018-12-11T10:23:03.938Z,95
2018-12-11T10:24:13.917Z,95
2018-12-11T10:25:23.876Z,105
2018-12-11T10:26:34.143Z,100
2018-12-11T10:27:43.855Z,100
2018-12-11T10:28:53.317Z,100
2018-12-11T10:30:03.019Z,95
2018-12-11T10:31:12.750Z,90
2018-12-11T10:32:22.447Z,95
2018-12-11T10:33:32.466Z,90
2018-12-11T10:34:42.175Z,75
2018-12-11T10:35:51.884Z,95
2018-12-11T10:37:01.824Z,100
2018-12-11T10:38:11.748Z,100
2018-12-11T10:39:21.448Z,100
2018-12-11T10:40:31.203Z,100
2018-12-11T10:41:41.157Z,100
2018-12-11T10:42:50.863Z,95
2018-12-11T10:44:00.330Z,95
2018-12-11T10:45:10.282Z,80
2018-12-11T10:46:20.285Z,95
2018-12-11T10:47:31.623Z,95
2018-12-11T10:48:41.602Z,90
2018-12-11T10:49:51.563Z,90
2018-12-11T10:51:01.534Z,95
2018-12-11T10:52:11.237Z,95
2018-12-11T10:53:20.951Z,100
2018-12-11T10:54:30.695Z,100
2018-12-11T10:55:40.645Z,95
2018-12-11T10:56:50.595Z,80
2018-12-11T10:58:00.564Z,80
2018-12-11T10:59:10.516Z,85
2018-12-11T11:00:20.695Z,80
2018-12-11T11:01:30.396Z,95
2018-12-11T11:02:40.363Z,100
2018-12-11T11:03:50.308Z,90
2018-12-11T11:05:00.242Z,90
2018-12-11T11:06:09.946Z,80
2018-12-11T11:07:19.398Z,85
2018-12-11T11:08:29.094Z,80
2018-12-11T11:09:38.817Z,75
2018-12-11T11:10:48.019Z,75
2018-12-11T11:11:58.063Z,70
2018-12-11T11:13:07.761Z,80
2018-12-11T11:14:17.787Z,90
2018-12-11T11:15:27.020Z,95
2018-12-11T11:16:36.731Z,85
2018-12-11T11:17:46.413Z,75
2018-12-11T11:18:56.099Z,70
2018-12-11T11:20:06.044Z,70
2018-12-11T11:21:16.002Z,70
2018-12-11T11:22:25.473Z,70
2018-12-11T11:23:35.442Z,75
2018-12-11T11:24:45.433Z,80
2018-12-11T11:25:55.118Z,90
2018-12-11T11:27:05.085Z,80
2018-12-11T11:28:15.047Z,85
2018-12-11T11:29:25.007Z,85
2018-12-11T11:30:34.692Z,80
2018-12-11T11:31:44.389Z,80
2018-12-11T11:32:54.094Z,80
2018-12-11T11:34:07.357Z,75
2018-12-11T11:35:16.809Z,100
2018-12-11T11:36:26.748Z,90
2018-12-11T11:37:36.445Z,75
2018-12-11T11:38:46.391Z,90
2018-12-11T11:39:56.095Z,85
2018-12-11T11:41:06.047Z,90
2018-12-11T11:42:15.732Z,90
2018-12-11T11:43:25.436Z,100
2018-12-11T11:44:35.199Z,95
2018-12-11T11:45:44.658Z,80
2018-12-11T11:46:54.636Z,75
2018-12-11T11:48:04.096Z,80
2018-12-11T11:49:14.738Z,90
2018-12-11T11:50:24.815Z,90
2018-12-11T11:51:34.529Z,85
2018-12-11T11:52:44.223Z,85
2018-12-11T11:53:54.001Z,85
2018-12-11T11:55:03.946Z,80
2018-12-11T11:56:13.646Z,80
2018-12-11T11:57:29.519Z,80
2018-12-11T11:58:39.643Z,80
2018-12-11T11:59:49.787Z,75
2018-12-11T12:00:59.503Z,80
2018-12-11T12:02:09.458Z,85
2018-12-11T12:03:19.440Z,85
2018-12-11T12:04:29.153Z,80
2018-12-11T12:05:38.932Z,75
2018-12-11T12:06:48.391Z,75
2018-12-11T12:07:58.091Z,70
2018-12-11T12:09:08.982Z,75
2018-12-11T12:10:18.664Z,70
2018-12-11T12:11:28.590Z,70
2018-12-11T12:12:39.089Z,70
2018-12-11T12:13:49.018Z,65
2018-12-11T12:14:58.978Z,65
2018-12-11T12:16:08.923Z,65
2018-12-11T12:17:18.892Z,65
2018-12-11T12:18:28.341Z,65
2018-12-11T12:19:38.458Z,60
2018-12-11T12:20:48.156Z,55
2018-12-11T12:21:58.099Z,60
2018-12-11T12:23:08.086Z,60
2018-12-11T12:24:17.773Z,50
2018-12-11T12:25:27.473Z,55
2018-12-11T12:26:38.010Z,55
2018-12-11T12:27:47.973Z,55
2018-12-11T12:28:57.726Z,55
2018-12-11T12:30:07.176Z,50
2018-12-11T12:31:16.899Z,55
2018-12-11T12:32:26.861Z,55
2018-12-11T12:33:36.392Z,50
2018-12-11T12:34:46.083Z,50
2018-12-11T12:35:56.039Z,45
2018-12-11T12:37:05.976Z,50
2018-12-11T12:38:15.682Z,50
2018-12-11T12:39:25.378Z,55
2018-12-11T12:40:35.085Z,55
2018-12-11T12:41:45.047Z,45
2018-12-11T12:42:55.010Z,45
2018-12-11T12:44:04.704Z,40
2018-12-11T12:45:14.649Z,35
2018-12-11T12:46:24.602Z,35
2018-12-11T12:47:34.543Z,40
2018-12-11T12:48:44.400Z,45
2018-12-11T12:50:00.246Z,40
2018-12-11T12:51:09.699Z,40
2018-12-11T12:52:19.137Z,35
2018-12-11T12:53:29.101Z,35
2018-12-11T12:54:38.641Z,40
2018-12-11T12:55:48.377Z,35
2018-12-11T12:56:58.303Z,35
2018-12-11T12:58:07.989Z,40
2018-12-11T12:59:17.501Z,35
2018-12-11T13:00:26.955Z,30
2018-12-11T13:01:36.663Z,35
2018-12-11T13:02:52.291Z,35
2018-12-11T13:04:01.979Z,35
2018-12-11T13:05:11.934Z,35
2018-12-11T13:06:21.637Z,40
2018-12-11T13:07:31.342Z,40
2018-12-11T13:08:41.065Z,35
2018-12-11T13:09:50.751Z,35
2018-12-11T13:11:00.207Z,35
2018-12-11T13:12:09.898Z,30
2018-12-11T13:13:19.622Z,35
2018-12-11T13:14:29.323Z,40
2018-12-11T13:15:39.313Z,35
2018-12-11T13:16:49.272Z,30
2018-12-11T13:17:59.220Z,35
2018-12-11T13:19:08.926Z,45
2018-12-11T13:20:18.876Z,40
2018-12-11T13:21:28.832Z,30
2018-12-11T13:22:38.551Z,30
2018-12-11T13:23:48.528Z,30
2018-12-11T13:24:58.266Z,30
2018-12-11T13:26:07.955Z,30
2018-12-11T13:27:17.171Z,25
2018-12-11T13:28:27.622Z,25
2018-12-11T13:29:37.577Z,30
2018-12-11T13:30:47.513Z,30
2018-12-11T13:31:57.507Z,25
2018-12-11T13:33:07.575Z,30
2018-12-11T13:34:17.601Z,30
2018-12-11T13:35:27.538Z,25
2018-12-11T13:36:41.734Z,25
2018-12-11T13:37:51.772Z,25
2018-12-11T13:39:01.257Z,25
2018-12-11T13:40:11.197Z,25
2018-12-11T13:41:20.774Z,25
2018-12-11T13:42:30.742Z,30
2018-12-11T13:43:40.446Z,25
2018-12-11T13:44:50.147Z,30
2018-12-11T13:46:00.605Z,30
2018-12-11T13:47:10.607Z,25
2018-12-11T13:48:26.065Z,20
2018-12-11T13:49:35.772Z,20
2018-12-11T13:50:45.733Z,20
2018-12-11T13:51:55.712Z,20
2018-12-11T13:53:05.659Z,20
2018-12-11T13:54:15.374Z,20
2018-12-11T13:55:25.145Z,15
2018-12-11T13:56:34.832Z,20
2018-12-11T13:57:44.541Z,20
2018-12-11T13:58:54.485Z,20
2018-12-11T14:00:04.494Z,15
2018-12-11T14:01:14.435Z,15
2018-12-11T14:02:24.454Z,15
2018-12-11T14:03:34.427Z,15
2018-12-11T14:04:44.125Z,15
2018-12-11T14:05:54.079Z,10
2018-12-11T14:07:03.768Z,10
2018-12-11T14:08:13.703Z,10
2018-12-11T14:09:23.387Z,10
2018-12-11T14:10:32.588Z,10
2018-12-11T14:11:42.508Z,10
2018-12-11T14:12:51.942Z,10
2018-12-11T14:14:01.879Z,10
2018-12-11T14:15:11.868Z,10
2018-12-11T14:16:21.826Z,10
2018-12-11T14:17:31.562Z,10
2018-12-11T14:18:44.521Z,10
2018-12-11T14:19:54.205Z,10
2018-12-11T14:21:03.914Z,10
2018-12-11T14:22:13.410Z,10
2018-12-11T14:23:23.397Z,10
2018-12-11T14:24:33.104Z,10
2018-12-11T14:25:43.059Z,10
2018-12-11T14:26:52.997Z,10
2018-12-11T14:28:02.938Z,10
2018-12-11T14:29:13.121Z,10
2018-12-11T14:30:23.049Z,10
2018-12-11T14:31:32.755Z,10
2018-12-11T14:32:42.448Z,10
2018-12-11T14:33:51.908Z,10
2018-12-11T14:35:01.607Z,10
2018-12-11T14:36:11.561Z,5
2018-12-11T14:37:21.510Z,5
2018-12-11T14:38:31.451Z,5
2018-12-11T14:39:41.144Z,5
2018-12-11T14:40:51.101Z,5
2018-12-11T14:42:01.067Z,5
2018-12-11T14:43:10.530Z,5
2018-12-11T14:44:20.460Z,0
2018-12-11T14:45:30.403Z,0
2018-12-11T14:46:40.413Z,0
2018-12-11T14:47:50.383Z,0
2018-12-11T14:49:00.309Z,0
2018-12-11T14:50:09.770Z,0
2018-12-11T14:51:19.719Z,0
2018-12-11T14:52:29.668Z,0
2018-12-11T14:53:39.658Z,0
2018-12-11T14:54:49.341Z,0
2018-12-11T14:55:59.329Z,0
2018-12-11T14:57:09.301Z,0
2018-12-11T14:58:18.995Z,0
2018-12-11T14:59:28.923Z,0
2018-12-11T15:00:38.616Z,0
2018-12-11T15:01:48.548Z,0
2018-12-11T15:02:58.492Z,0
2018-12-11T15:04:08.424Z,0
2018-12-11T15:05:18.359Z,0
2018-12-11T15:06:28.297Z,0
2018-12-11T15:07:38.231Z,0
2018-12-11T15:08:48.190Z,0
2018-12-11T15:09:57.902Z,0
2018-12-11T15:11:07.844Z,0
2018-12-11T15:12:17.531Z,0
2018-12-11T15:13:27.476Z,0
2018-12-11T15:14:37.411Z,0
2018-12-11T15:15:47.349Z,0
2018-12-11T15:16:57.292Z,0
2018-12-11T15:18:07.506Z,0
2018-12-11T15:19:17.225Z,0
2018-12-11T15:20:27.163Z,0
2018-12-11T15:21:36.844Z,0
2018-12-11T15:22:46.790Z,0
2018-12-11T15:23:56.727Z,0
2018-12-11T15:25:06.178Z,0
2018-12-11T15:26:15.624Z,0
2018-12-11T15:27:25.655Z,0
2018-12-11T15:28:35.349Z,0
2018-12-11T15:29:45.041Z,0
2018-12-11T15:30:54.976Z,0
2018-12-11T15:32:04.929Z,0
2018-12-11T15:33:14.891Z,0
2018-12-11T15:34:24.586Z,0
2018-12-11T15:35:34.286Z,0
2018-12-11T15:36:43.983Z,0
2018-12-11T15:37:53.947Z,0
2018-12-11T15:39:03.692Z,0
2018-12-11T15:40:13.640Z,0
2018-12-11T15:41:23.583Z,0
2018-12-11T15:42:33.555Z,0
2018-12-11T15:43:43.302Z,0
2018-12-11T15:44:53.009Z,0
2018-12-11T15:46:08.198Z,0
2018-12-11T15:47:17.901Z,0
2018-12-11T15:48:27.850Z,0
2018-12-11T15:49:37.558Z,0
2018-12-11T15:50:47.512Z,0
2018-12-11T15:51:57.496Z,0
2018-12-11T15:53:07.446Z,0
2018-12-11T15:54:17.400Z,0
2018-12-11T15:55:26.854Z,0
2018-12-11T15:56:36.287Z,0
2018-12-11T15:57:46.242Z,0
2018-12-11T15:58:55.930Z,0
2018-12-11T16:00:05.387Z,0
2018-12-11T16:01:15.087Z,0
2018-12-11T16:02:24.524Z,0
2018-12-11T16:03:34.483Z,0
2018-12-11T16:04:44.434Z,0
2018-12-11T16:05:54.399Z,0
2018-12-11T16:07:04.349Z,0
2018-12-11T16:08:14.044Z,0
2018-12-11T16:09:23.995Z,0
2018-12-11T16:10:33.787Z,0
2018-12-11T16:11:43.476Z,0
2018-12-11T16:12:52.668Z,0
2018-12-11T16:14:02.610Z,0
2018-12-11T16:15:12.576Z,0
2018-12-11T16:16:22.561Z,0
2018-12-11T16:17:32.535Z,0
2018-12-11T16:18:42.508Z,0
2018-12-11T16:19:52.211Z,0
2018-12-11T16:21:01.921Z,0
2018-12-11T16:22:11.864Z,0
2018-12-11T16:23:21.823Z,0
2018-12-11T16:24:31.529Z,0
2018-12-11T16:25:41.482Z,0
2018-12-11T16:26:51.428Z,0
2018-12-11T16:28:01.404Z,0
2018-12-11T16:29:11.097Z,0
2018-12-11T16:30:20.785Z,0
2018-12-11T16:31:30.484Z,0
2018-12-11T16:32:40.424Z,0
2018-12-11T16:33:50.389Z,0
2018-12-11T16:35:00.343Z,0
2018-12-11T16:36:10.032Z,0
2018-12-11T16:37:19.729Z,0
2018-12-11T16:38:29.696Z,0
2018-12-11T16:39:39.672Z,0
2018-12-11T16:40:48.903Z,0
2018-12-11T16:41:58.858Z,0
2018-12-11T16:43:08.792Z,0
2018-12-11T16:44:18.744Z,0
2018-12-11T16:45:28.431Z,0
2018-12-11T16:46:38.112Z,0
2018-12-11T16:47:47.796Z,0
2018-12-11T16:48:57.735Z,0
2018-12-11T16:50:07.426Z,0
2018-12-11T16:51:17.400Z,0
2018-12-11T16:52:27.351Z,0
2018-12-11T16:53:37.296Z,0
2018-12-11T16:54:47.254Z,0